Time;durP1;ratioP1;P1;durP2;ratioP2;P2;SDS_P1;SDS_P2;PMS_P1;PMS_P2;Temp;Humidity;BMP_temperature;BMP_pressure;BME280_temperature;BME280_humidity;BME280_pressure;Samples;Min_cycle;Max_cycle;Signal;HPM_P1;HPM_P2
2022/01/25 00:15:02;;;;;;;38.35;15.55;;;4.30;99.90;;;;;;5093548;28;20047;-75
2022/01/25 00:27:26;;;;;;;35.35;14.40;;;4.30;99.90;;;;;;5073324;28;20062;-74
2022/01/25 00:29:59;;;;;;;36.92;15.23;;;4.60;99.90;;;;;;5091490;28;20039;-79
2022/01/25 00:32:25;;;;;;;41.83;16.17;;;4.30;99.90;;;;;;5094714;28;20028;-79
2022/01/25 00:34:50;;;;;;;38.78;15.43;;;4.30;99.90;;;;;;5096756;28;20035;-79
2022/01/25 00:37:16;;;;;;;43.45;16.20;;;4.30;99.90;;;;;;5097176;28;20020;-79
2022/01/25 00:39:42;;;;;;;41.90;16.52;;;4.30;99.90;;;;;;5096102;28;20020;-78
2022/01/25 00:42:08;;;;;;;39.80;16.42;;;4.30;99.90;;;;;;5097647;28;20033;-78
2022/01/25 00:44:39;;;;;;;38.08;16.52;;;4.30;99.90;;;;;;5096732;28;20080;-79
2022/01/25 00:47:09;;;;;;;40.33;16.13;;;4.30;99.90;;;;;;5097226;28;20016;-79
2022/01/25 00:49:38;;;;;;;42.05;15.55;;;4.30;99.90;;;;;;5096220;28;20031;-79
2022/01/25 00:54:52;;;;;;;41.28;15.45;;;4.30;99.90;;;;;;5096098;28;20047;-79
2022/01/25 00:57:18;;;;;;;39.15;15.15;;;4.30;99.90;;;;;;5095820;28;20012;-78
2022/01/25 00:59:43;;;;;;;36.92;14.50;;;4.30;99.90;;;;;;5094659;28;20390;-79
2022/01/25 01:02:12;;;;;;;38.17;15.82;;;4.30;99.90;;;;;;5094716;28;20023;-78
2022/01/25 01:04:41;;;;;;;40.92;16.15;;;4.30;99.90;;;;;;5096857;28;20008;-79
2022/01/25 01:07:08;;;;;;;;;;;4.30;99.90;;;;;;5096190;28;20016;-78
2022/01/25 01:09:37;;;;;;;38.65;14.57;;;4.30;99.90;;;;;;5097262;28;19951;-79
2022/01/25 01:12:10;;;;;;;41.53;16.92;;;4.30;99.90;;;;;;5095066;28;20026;-78
2022/01/25 01:41:50;;;;;;;37.45;16.00;;;4.20;99.90;;;;;;5094877;28;20378;-78
2022/01/25 01:43:39;;;;;;;36.90;14.82;;;4.20;99.90;;;;;;5090854;28;20032;-78
2022/01/25 01:48:56;;;;;;;37.95;16.08;;;4.20;99.90;;;;;;5095371;28;20032;-78
2022/01/25 01:53:58;;;;;;;40.40;15.82;;;4.20;99.90;;;;;;5096168;28;20032;-78
2022/01/25 01:56:24;;;;;;;40.08;15.93;;;4.20;99.90;;;;;;5094449;28;20055;-78
2022/01/25 01:58:55;;;;;;;40.83;14.75;;;4.20;99.90;;;;;;5094154;28;20016;-78
2022/01/25 02:01:24;;;;;;;41.97;15.95;;;4.20;99.90;;;;;;5095575;28;20016;-79
2022/01/25 02:03:51;;;;;;;39.75;15.05;;;4.20;99.90;;;;;;5093807;28;20544;-78
2022/01/25 02:06:17;;;;;;;36.13;14.55;;;4.20;99.90;;;;;;5095022;28;20076;-78
2022/01/25 02:08:42;;;;;;;35.33;14.82;;;4.20;99.90;;;;;;5095415;28;20450;-78
2022/01/25 02:11:08;;;;;;;39.78;16.35;;;4.20;99.90;;;;;;5094269;28;20020;-78
2022/01/25 02:13:34;;;;;;;41.22;15.93;;;4.20;99.90;;;;;;5092462;28;20046;-78
2022/01/25 02:16:04;;;;;;;41.22;14.63;;;4.20;99.90;;;;;;5093306;28;20519;-79
2022/01/25 02:23:58;;;;;;;35.88;14.60;;;4.10;99.90;;;;;;5095316;28;20558;-78
2022/01/25 02:26:24;;;;;;;38.85;15.82;;;4.20;99.90;;;;;;5095050;28;20024;-78
2022/01/25 02:28:49;;;;;;;39.13;15.23;;;4.20;99.90;;;;;;5093288;28;20115;-79
2022/01/25 02:31:17;;;;;;;36.95;14.75;;;4.20;99.90;;;;;;5093721;28;20507;-78
2022/01/25 02:33:43;;;;;;;42.15;15.48;;;4.20;99.90;;;;;;5092913;28;20049;-77
2022/01/25 02:36:14;;;;;;;36.42;15.05;;;4.20;99.90;;;;;;5097778;28;20024;-78
2022/01/25 02:38:40;;;;;;;35.17;15.00;;;4.10;99.90;;;;;;5099388;28;20020;-78
2022/01/25 02:41:06;;;;;;;41.55;16.50;;;4.20;99.90;;;;;;5097245;28;20074;-77
2022/01/25 02:43:34;;;;;;;34.13;14.63;;;4.10;99.90;;;;;;5097613;28;20032;-78
2022/01/25 02:48:50;;;;;;;38.53;15.63;;;4.10;99.90;;;;;;5099875;28;20393;-78
2022/01/25 02:51:16;;;;;;;42.17;14.98;;;4.10;99.90;;;;;;5100378;28;20089;-79
2022/01/25 02:53:41;;;;;;;37.10;15.68;;;4.10;99.90;;;;;;5098557;28;20023;-78
2022/01/25 02:56:07;;;;;;;37.00;15.38;;;4.10;99.90;;;;;;5096639;28;20012;-78
2022/01/25 02:58:32;;;;;;;41.95;16.33;;;4.10;99.90;;;;;;5098468;28;20012;-79
2022/01/25 03:00:58;;;;;;;35.38;14.23;;;4.10;99.90;;;;;;5098559;28;20077;-78
2022/01/25 03:03:23;;;;;;;35.72;15.77;;;4.10;99.90;;;;;;5098650;28;20028;-78
2022/01/25 03:05:49;;;;;;;42.80;16.83;;;4.10;99.90;;;;;;5098328;28;20024;-78
2022/01/25 03:08:15;;;;;;;38.25;15.77;;;4.10;99.90;;;;;;5096532;28;20507;-78
2022/01/25 03:10:44;;;;;;;40.00;14.95;;;4.10;99.90;;;;;;5098074;28;20169;-78
2022/01/25 03:13:16;;;;;;;39.08;15.07;;;4.70;99.90;;;;;;5098235;28;20023;-78
2022/01/25 03:15:57;;;;;;;39.65;16.23;;;4.10;99.90;;;;;;5097320;28;20093;-78
2022/01/25 03:21:49;;;;;;;37.30;16.33;;;4.10;99.90;;;;;;5098383;28;20031;-78
2022/01/25 03:23:50;;;;;;;40.30;15.52;;;4.10;99.90;;;;;;5093046;28;20032;-78
2022/01/25 03:26:17;;;;;;;39.97;15.68;;;4.10;99.90;;;;;;5096880;28;20030;-78
2022/01/25 03:28:43;;;;;;;38.85;15.90;;;4.10;99.90;;;;;;5097621;28;20028;-78
2022/01/25 03:31:12;;;;;;;43.63;16.10;;;4.10;99.90;;;;;;5096553;28;20034;-78
2022/01/25 03:33:37;;;;;;;42.38;16.90;;;4.10;99.90;;;;;;5096248;28;20107;-79
2022/01/25 03:36:04;;;;;;;37.05;15.38;;;4.00;99.90;;;;;;5097790;28;20040;-78
2022/01/25 03:38:30;;;;;;;35.80;13.80;;;4.10;99.90;;;;;;5096554;28;20020;-78
2022/01/25 03:40:55;;;;;;;42.53;17.13;;;4.00;99.90;;;;;;5095345;28;20031;-77
2022/01/25 03:43:21;;;;;;;38.72;15.75;;;4.00;99.90;;;;;;5095038;28;20019;-78
2022/01/25 03:46:01;;;;;;;36.75;14.88;;;4.00;99.90;;;;;;5096251;28;20557;-78
2022/01/25 03:50:52;;;;;;;47.90;16.88;;;4.00;99.90;;;;;;5097369;28;20039;-79
2022/01/25 03:53:19;;;;;;;38.08;16.02;;;4.00;99.90;;;;;;5095823;28;20031;-78
2022/01/25 03:55:47;;;;;;;37.97;14.98;;;4.00;99.90;;;;;;5096211;28;20020;-78
2022/01/25 03:58:12;;;;;;;39.38;16.13;;;4.00;99.90;;;;;;5095993;28;20016;-78
2022/01/25 04:00:39;;;;;;;38.25;16.27;;;4.00;99.90;;;;;;5094974;28;20067;-77
2022/01/25 04:05:48;;;;;;;39.50;16.83;;;4.00;99.90;;;;;;5097009;28;20028;-79
2022/01/25 04:08:14;;;;;;;33.65;13.55;;;4.00;99.90;;;;;;5095990;28;20024;-78
2022/01/25 04:10:40;;;;;;;36.42;14.40;;;4.00;99.90;;;;;;5094759;28;20016;-78
2022/01/25 04:13:07;;;;;;;40.17;16.65;;;4.00;99.90;;;;;;5094464;28;20047;-77
2022/01/25 04:15:34;;;;;;;38.58;15.18;;;4.00;99.90;;;;;;5096509;28;20468;-79
2022/01/25 04:18:22;;;;;;;36.63;14.85;;;4.00;99.90;;;;;;5097448;28;20027;-79
2022/01/25 04:21:01;;;;;;;39.20;15.30;;;4.00;99.90;;;;;;5097207;28;20473;-79
2022/01/25 04:26:11;;;;;;;43.25;15.43;;;4.00;99.90;;;;;;5096329;28;20088;-79
2022/01/25 04:28:37;;;;;;;38.50;15.15;;;4.00;99.90;;;;;;5096739;28;20103;-79
2022/01/25 04:31:02;;;;;;;44.35;15.10;;;4.00;99.90;;;;;;5096101;28;20106;-78
2022/01/25 04:33:39;;;;;;;36.95;15.25;;;4.00;99.90;;;;;;5094647;28;20032;-78
2022/01/25 04:36:27;;;;;;;32.90;14.32;;;4.00;99.90;;;;;;5096256;28;20020;-79
2022/01/25 04:49:53;;;;;;;39.10;15.07;;;4.00;99.90;;;;;;5095483;28;20519;-79
2022/01/25 04:52:22;;;;;;;38.28;15.60;;;4.00;99.90;;;;;;5095607;28;20069;-78
2022/01/25 04:55:06;;;;;;;43.38;16.75;;;4.00;99.90;;;;;;5095362;28;20031;-79
2022/01/25 04:57:48;;;;;;;38.45;15.43;;;4.00;99.90;;;;;;5095813;28;20016;-79
2022/01/25 05:00:18;;;;;;;38.05;15.02;;;4.00;99.90;;;;;;5095529;28;20027;-78
2022/01/25 05:02:57;;;;;;;38.50;15.48;;;4.00;99.90;;;;;;5093989;28;20473;-79
2022/01/25 05:08:03;;;;;;;43.17;16.25;;;4.10;99.90;;;;;;5096487;28;20366;-79
2022/01/25 05:10:31;;;;;;;41.47;15.20;;;4.00;99.90;;;;;;5096448;28;20446;-79
2022/01/25 05:23:19;;;;;;;38.30;15.60;;;4.00;99.90;;;;;;5097050;28;20097;-79
2022/01/25 05:25:44;;;;;;;39.10;16.08;;;4.00;99.90;;;;;;5096415;28;20082;-79
2022/01/25 05:28:10;;;;;;;44.70;17.27;;;4.00;99.90;;;;;;5095144;28;20020;-79
2022/01/25 05:30:35;;;;;;;44.30;16.70;;;4.00;99.90;;;;;;5095304;28;20036;-79
2022/01/25 05:33:01;;;;;;;44.33;16.65;;;4.00;99.90;;;;;;5094566;28;20040;-78
2022/01/25 05:35:27;;;;;;;44.78;17.08;;;4.00;99.90;;;;;;5095179;28;20454;-78
2022/01/25 05:37:53;;;;;;;39.20;15.68;;;4.00;99.90;;;;;;5094907;28;20023;-78
2022/01/25 05:40:28;;;;;;;38.05;15.15;;;4.00;99.90;;;;;;5093138;28;20032;-78
2022/01/25 05:46:03;;;;;;;45.20;17.33;;;4.00;99.90;;;;;;5094639;28;20102;-78
2022/01/25 05:48:30;;;;;;;45.92;17.00;;;4.00;99.90;;;;;;5093130;28;20024;-78
2022/01/25 05:50:57;;;;;;;43.55;16.33;;;4.10;99.90;;;;;;5094204;28;20020;-78
2022/01/25 05:53:23;;;;;;;47.05;16.90;;;4.10;99.90;;;;;;5093653;28;20119;-78
2022/01/25 05:55:48;;;;;;;43.42;16.88;;;4.00;99.90;;;;;;5093893;28;20043;-79
2022/01/25 05:58:14;;;;;;;46.42;17.63;;;4.10;99.90;;;;;;5095501;28;20469;-78
2022/01/25 06:00:40;;;;;;;41.67;16.65;;;4.00;99.90;;;;;;5094437;28;20081;-79
2022/01/25 06:03:06;;;;;;;40.97;15.52;;;4.00;99.90;;;;;;5093818;28;20089;-78
2022/01/25 06:05:33;;;;;;;40.70;15.77;;;4.10;99.90;;;;;;5094283;28;20020;-78
2022/01/25 06:07:59;;;;;;;45.28;15.93;;;4.10;99.90;;;;;;5095445;28;20024;-78
2022/01/25 06:10:25;;;;;;;43.08;17.33;;;4.10;99.90;;;;;;5095902;28;20035;-79
2022/01/25 06:12:50;;;;;;;45.75;17.55;;;4.10;99.90;;;;;;5094111;28;20469;-79
2022/01/25 06:15:16;;;;;;;40.70;15.57;;;4.10;99.90;;;;;;5096031;28;20461;-79
2022/01/25 06:17:42;;;;;;;47.22;17.65;;;4.10;99.90;;;;;;5096919;28;20421;-79
2022/01/25 06:20:08;;;;;;;47.00;17.83;;;4.10;99.90;;;;;;5094341;28;20024;-78
2022/01/25 06:22:34;;;;;;;50.15;19.00;;;4.10;99.90;;;;;;5093974;28;20116;-79
2022/01/25 06:25:00;;;;;;;47.90;17.55;;;4.10;99.90;;;;;;5097154;28;20058;-79
2022/01/25 06:27:26;;;;;;;49.63;18.92;;;4.10;99.90;;;;;;5094757;28;20388;-81
2022/01/25 06:29:51;;;;;;;48.13;18.50;;;4.10;99.90;;;;;;5095820;28;20016;-81
2022/01/25 06:32:19;;;;;;;47.10;18.15;;;4.10;99.90;;;;;;5095341;28;20012;-75
2022/01/25 06:34:45;;;;;;;46.47;16.02;;;4.10;99.90;;;;;;5093398;28;20389;-76
2022/01/25 06:37:12;;;;;;;43.85;17.10;;;4.10;99.90;;;;;;5093224;28;20020;-77
2022/01/25 06:39:41;;;;;;;48.90;18.85;;;4.10;99.90;;;;;;5093374;28;20012;-76
2022/01/25 06:42:08;;;;;;;48.60;18.13;;;4.10;99.90;;;;;;5093033;28;20024;-75
2022/01/25 06:44:35;;;;;;;59.00;21.70;;;4.10;99.90;;;;;;5080298;28;20025;-76
2022/01/25 06:47:02;;;;;;;54.67;18.98;;;4.10;99.90;;;;;;5091048;28;20028;-75
2022/01/25 06:49:27;;;;;;;57.88;20.80;;;4.10;99.90;;;;;;5092955;28;20035;-75
2022/01/25 06:51:53;;;;;;;55.58;19.83;;;4.10;99.90;;;;;;5093300;28;20032;-75
2022/01/25 06:54:18;;;;;;;54.92;20.17;;;4.10;99.90;;;;;;5093522;28;20069;-75
2022/01/25 06:56:44;;;;;;;55.10;19.48;;;4.10;99.90;;;;;;5088561;28;20035;-74
2022/01/25 06:59:09;;;;;;;55.10;18.75;;;4.10;99.90;;;;;;5073551;28;20452;-75
2022/01/25 07:01:35;;;;;;;53.28;19.27;;;4.10;99.90;;;;;;5073160;28;20485;-76
2022/01/25 07:04:01;;;;;;;55.20;19.15;;;4.10;99.90;;;;;;5073046;28;20077;-76
2022/01/25 07:06:27;;;;;;;57.63;19.92;;;4.10;99.90;;;;;;5072910;28;20025;-74
2022/01/25 07:08:54;;;;;;;55.88;19.77;;;4.10;99.90;;;;;;5072826;28;20032;-76
2022/01/25 07:11:20;;;;;;;58.92;21.73;;;4.10;99.90;;;;;;5071649;28;20031;-76
2022/01/25 07:13:47;;;;;;;58.00;21.00;;;4.10;99.90;;;;;;5073248;28;20525;-75
2022/01/25 07:16:13;;;;;;;64.53;20.88;;;4.00;99.90;;;;;;5072741;28;20458;-75
2022/01/25 07:18:39;;;;;;;54.72;19.67;;;4.00;99.90;;;;;;5072719;28;20086;-75
2022/01/25 07:21:04;;;;;;;56.40;19.88;;;4.00;99.90;;;;;;5075006;28;20025;-77
2022/01/25 07:23:30;;;;;;;55.25;20.35;;;4.00;99.90;;;;;;5076250;28;20096;-75
2022/01/25 07:25:55;;;;;;;61.13;20.73;;;4.00;99.90;;;;;;5074946;28;20020;-75
2022/01/25 07:28:21;;;;;;;57.17;19.92;;;4.10;99.90;;;;;;5076152;28;20033;-76
2022/01/25 07:30:46;;;;;;;61.33;20.88;;;4.10;99.90;;;;;;5076344;28;20492;-75
2022/01/25 07:33:12;;;;;;;59.38;20.23;;;4.00;99.90;;;;;;5074797;28;20371;-75
2022/01/25 07:35:38;;;;;;;56.80;20.42;;;4.00;99.90;;;;;;5076397;28;20111;-75
2022/01/25 07:38:04;;;;;;;51.63;19.00;;;4.10;99.90;;;;;;5074807;28;20020;-75
2022/01/25 07:40:31;;;;;;;58.88;21.13;;;4.00;99.90;;;;;;5075858;28;20025;-76
2022/01/25 07:42:56;;;;;;;54.28;19.52;;;4.10;99.90;;;;;;5076010;28;20029;-76
2022/01/25 07:45:22;;;;;;;58.10;21.63;;;4.10;99.90;;;;;;5076061;28;20032;-73
2022/01/25 07:47:48;;;;;;;48.15;18.52;;;4.00;99.90;;;;;;5075723;28;20040;-74
2022/01/25 07:50:15;;;;;;;53.97;20.95;;;4.10;99.90;;;;;;5075916;28;20477;-73
2022/01/25 07:52:41;;;;;;;55.10;18.95;;;4.10;99.90;;;;;;5075909;28;20029;-73
2022/01/25 07:55:07;;;;;;;53.10;19.52;;;4.10;99.90;;;;;;5075560;28;20047;-73
2022/01/25 07:57:33;;;;;;;54.30;19.92;;;4.00;99.90;;;;;;5074409;28;20078;-74
2022/01/25 08:00:00;;;;;;;62.10;19.83;;;4.00;99.90;;;;;;5075505;28;20025;-74
2022/01/25 08:02:25;;;;;;;60.13;22.17;;;4.00;99.90;;;;;;5074229;28;20401;-74
2022/01/25 08:04:51;;;;;;;60.13;21.23;;;4.00;99.90;;;;;;5075500;28;20100;-73
2022/01/25 08:07:17;;;;;;;60.55;21.48;;;4.00;99.90;;;;;;5074175;28;20107;-74
2022/01/25 08:09:43;;;;;;;61.30;21.17;;;4.10;99.90;;;;;;5075533;28;20016;-74
2022/01/25 08:12:11;;;;;;;64.60;22.00;;;4.10;99.90;;;;;;5075292;28;20024;-74
2022/01/25 08:14:38;;;;;;;61.58;21.13;;;4.10;99.90;;;;;;5075138;28;20032;-73
2022/01/25 08:17:06;;;;;;;61.88;21.92;;;4.10;99.90;;;;;;5075124;28;20028;-76
2022/01/25 08:19:32;;;;;;;62.53;22.27;;;4.10;99.90;;;;;;5074500;28;20028;-78
2022/01/25 08:21:57;;;;;;;62.92;21.48;;;4.10;99.90;;;;;;5075674;28;20021;-77
2022/01/25 08:24:23;;;;;;;61.45;21.88;;;4.10;99.90;;;;;;5074251;28;20565;-76
2022/01/25 08:26:49;;;;;;;67.00;23.85;;;4.10;99.90;;;;;;5074272;28;20056;-77
2022/01/25 08:29:15;;;;;;;61.33;21.33;;;4.10;99.90;;;;;;5074198;28;20017;-77
2022/01/25 08:31:41;;;;;;;67.07;22.33;;;4.10;99.90;;;;;;5075801;28;20028;-76
2022/01/25 08:34:11;;;;;;;65.82;22.88;;;4.10;99.90;;;;;;5074099;28;20021;-73
2022/01/25 08:36:38;;;;;;;64.05;22.70;;;4.10;99.90;;;;;;5075714;28;20013;-74
2022/01/25 08:39:04;;;;;;;65.10;22.52;;;4.10;99.90;;;;;;5076524;28;20024;-74
2022/01/25 08:41:30;;;;;;;61.20;22.42;;;4.10;99.90;;;;;;5076172;28;20017;-74
2022/01/25 08:43:55;;;;;;;58.67;21.42;;;4.20;99.90;;;;;;5076520;28;20082;-73
2022/01/25 08:46:21;;;;;;;64.40;22.38;;;4.20;99.90;;;;;;5075316;28;20064;-74
2022/01/25 08:48:47;;;;;;;66.40;22.52;;;4.20;99.90;;;;;;5076588;28;20154;-73
2022/01/25 08:51:13;;;;;;;62.90;21.38;;;4.20;99.90;;;;;;5076664;28;20146;-74
2022/01/25 08:53:39;;;;;;;67.35;22.63;;;4.20;99.90;;;;;;5076306;28;20028;-75
2022/01/25 08:56:05;;;;;;;70.57;22.98;;;4.20;99.90;;;;;;5075858;28;20028;-74
2022/01/25 08:58:31;;;;;;;68.93;23.13;;;4.30;99.90;;;;;;5074334;28;20020;-74
2022/01/25 09:00:57;;;;;;;70.68;23.38;;;4.30;99.90;;;;;;5075152;28;20386;-75
2022/01/25 09:03:23;;;;;;;65.68;22.83;;;4.30;99.90;;;;;;5075200;28;20056;-76
2022/01/25 09:05:48;;;;;;;62.58;23.05;;;4.30;99.90;;;;;;5074720;28;20044;-75
2022/01/25 09:08:20;;;;;;;68.75;23.85;;;4.30;99.90;;;;;;5076164;28;20099;-75
2022/01/25 09:10:45;;;;;;;64.25;22.95;;;4.40;99.90;;;;;;5074482;28;20028;-74
2022/01/25 09:13:11;;;;;;;61.55;22.58;;;4.40;99.90;;;;;;5077049;28;20039;-74
2022/01/25 09:15:37;;;;;;;61.55;21.27;;;4.50;99.90;;;;;;5077808;28;20040;-74
2022/01/25 09:18:03;;;;;;;59.50;21.60;;;4.40;99.90;;;;;;5076675;28;20017;-73
2022/01/25 09:20:28;;;;;;;67.88;22.15;;;4.40;99.90;;;;;;5076467;28;20032;-73
2022/01/25 09:22:54;;;;;;;61.55;20.80;;;4.40;99.90;;;;;;5076512;28;20467;-74
2022/01/25 09:25:20;;;;;;;64.72;21.55;;;4.30;99.90;;;;;;5076310;28;20017;-74
2022/01/25 09:27:45;;;;;;;54.78;20.27;;;4.30;99.90;;;;;;5074967;28;20107;-74
2022/01/25 09:30:11;;;;;;;68.00;23.00;;;4.30;99.90;;;;;;5074500;28;20039;-76
2022/01/25 09:32:37;;;;;;;65.82;21.83;;;4.40;99.90;;;;;;5073991;28;20017;-76
2022/01/25 09:35:03;;;;;;;64.05;20.75;;;4.40;99.90;;;;;;5074061;28;20453;-75
2022/01/25 09:37:28;;;;;;;70.72;22.23;;;4.40;99.90;;;;;;5074000;28;20017;-76
2022/01/25 09:39:54;;;;;;;71.47;22.73;;;4.40;99.90;;;;;;5073808;28;20016;-76
2022/01/25 09:42:20;;;;;;;62.60;21.23;;;4.40;99.90;;;;;;5073739;28;20054;-76
2022/01/25 09:44:47;;;;;;;59.60;22.48;;;4.50;99.90;;;;;;5074067;28;20068;-76
2022/01/25 09:47:12;;;;;;;74.10;23.90;;;4.50;99.90;;;;;;5072754;28;20393;-77
2022/01/25 09:49:38;;;;;;;67.53;23.33;;;4.50;99.90;;;;;;5073776;28;20024;-76
2022/01/25 09:52:06;;;;;;;69.03;23.13;;;4.50;99.90;;;;;;5073702;28;20027;-77
2022/01/25 09:54:34;;;;;;;62.17;23.67;;;4.50;99.90;;;;;;5073381;28;20038;-76
2022/01/25 09:57:04;;;;;;;66.35;22.50;;;4.60;99.90;;;;;;5073873;28;20032;-75
2022/01/25 09:59:30;;;;;;;65.20;21.65;;;4.60;99.90;;;;;;5074337;28;20054;-77
2022/01/25 10:01:57;;;;;;;61.13;21.88;;;4.60;99.90;;;;;;5073665;28;20016;-76
2022/01/25 10:04:34;;;;;;;67.35;21.75;;;4.60;99.90;;;;;;5073595;28;20024;-76
2022/01/25 10:07:00;;;;;;;71.10;23.23;;;4.60;99.90;;;;;;5072811;28;20086;-76
2022/01/25 10:09:28;;;;;;;66.68;21.73;;;4.60;99.90;;;;;;5073963;28;20103;-76
2022/01/25 10:11:55;;;;;;;52.53;17.90;;;4.70;99.90;;;;;;5072180;28;20028;-76
2022/01/25 10:14:23;;;;;;;61.33;22.40;;;4.70;99.90;;;;;;5072178;28;20036;-76
2022/01/25 10:16:56;;;;;;;63.83;22.73;;;4.60;99.90;;;;;;5073460;28;20474;-76
2022/01/25 10:19:25;;;;;;;66.05;21.85;;;4.70;99.90;;;;;;5072384;28;20082;-76
2022/01/25 10:21:51;;;;;;;70.40;24.02;;;4.70;99.90;;;;;;5073418;28;20020;-77
2022/01/25 10:24:18;;;;;;;72.60;24.48;;;4.60;99.90;;;;;;5072066;28;20059;-76
2022/01/25 10:27:03;;;;;;;65.90;21.73;;;4.60;99.90;;;;;;5072467;28;20028;-76
2022/01/25 10:29:32;;;;;;;60.08;20.98;;;4.60;99.90;;;;;;5073398;28;20054;-76
2022/01/25 10:32:00;;;;;;;64.00;22.70;;;4.60;99.90;;;;;;5072177;28;20082;-75
2022/01/25 10:34:29;;;;;;;66.68;21.42;;;4.60;99.90;;;;;;5073252;28;20024;-77
2022/01/25 10:36:57;;;;;;;63.92;21.20;;;4.60;99.90;;;;;;5073260;28;20021;-76
2022/01/25 10:39:31;;;;;;;68.82;22.42;;;4.60;99.90;;;;;;5073588;28;20098;-76
2022/01/25 10:42:10;;;;;;;66.82;22.45;;;4.70;99.90;;;;;;5072983;28;20092;-76
2022/01/25 10:44:56;;;;;;;68.18;21.88;;;4.70;99.90;;;;;;5073139;28;20036;-76
2022/01/25 10:47:40;;;;;;;59.00;19.88;;;4.70;99.90;;;;;;5072419;28;20021;-76
2022/01/25 10:50:15;;;;;;;62.80;19.80;;;4.70;99.90;;;;;;5072326;28;20033;-75
2022/01/25 10:52:40;;;;;;;61.15;21.88;;;4.70;99.90;;;;;;5072005;28;20119;-76
2022/01/25 10:55:07;;;;;;;63.25;21.05;;;4.70;99.90;;;;;;5072316;28;20112;-77
2022/01/25 10:57:32;;;;;;;64.32;23.08;;;4.70;99.90;;;;;;5075803;28;20089;-77
2022/01/25 11:00:08;;;;;;;63.78;22.15;;;4.70;99.90;;;;;;5076641;28;20096;-77
2022/01/25 11:02:34;;;;;;;66.75;22.70;;;4.70;99.90;;;;;;5076974;28;20087;-76
2022/01/25 11:05:08;;;;;;;61.88;21.73;;;4.70;99.90;;;;;;5076701;28;20024;-76
2022/01/25 11:07:46;;;;;;;60.53;19.90;;;4.70;99.90;;;;;;5076506;28;20013;-76
2022/01/25 11:10:19;;;;;;;64.65;21.60;;;4.70;99.90;;;;;;5075655;28;20074;-76
2022/01/25 11:13:02;;;;;;;65.05;20.75;;;4.70;99.90;;;;;;5075297;28;20025;-76
2022/01/25 11:15:27;;;;;;;63.72;21.75;;;4.70;99.90;;;;;;5075212;28;20017;-76
2022/01/25 11:17:53;;;;;;;58.25;19.83;;;4.70;99.90;;;;;;5076541;28;20359;-76
2022/01/25 11:20:19;;;;;;;65.78;21.88;;;4.70;99.90;;;;;;5076213;28;20024;-76
2022/01/25 11:22:45;;;;;;;60.50;20.50;;;4.70;99.90;;;;;;5075256;28;20021;-76
2022/01/25 11:25:13;;;;;;;65.53;20.65;;;4.70;99.90;;;;;;5076523;28;20071;-75
2022/01/25 11:27:41;;;;;;;62.00;21.15;;;4.80;99.90;;;;;;5076371;28;20032;-76
2022/01/25 11:30:12;;;;;;;65.78;21.27;;;4.80;99.90;;;;;;5077048;28;20016;-76
2022/01/25 11:32:41;;;;;;;73.28;21.95;;;4.80;99.90;;;;;;5076908;28;20100;-76
2022/01/25 11:35:10;;;;;;;61.58;20.45;;;4.80;99.90;;;;;;5075076;28;20478;-75
2022/01/25 11:37:47;;;;;;;61.72;19.30;;;4.80;99.90;;;;;;5076297;28;20367;-75
2022/01/25 11:40:28;;;;;;;59.90;21.38;;;4.70;99.90;;;;;;5076237;28;20462;-76
2022/01/25 11:43:05;;;;;;;64.30;21.52;;;4.70;99.90;;;;;;5076840;28;20031;-76
2022/01/25 11:45:33;;;;;;;62.55;20.40;;;4.70;99.90;;;;;;5076342;28;20063;-76
2022/01/25 11:47:59;;;;;;;61.20;21.10;;;4.70;99.90;;;;;;5075945;28;20063;-76
2022/01/25 11:50:43;;;;;;;58.85;20.27;;;4.70;99.90;;;;;;5076220;28;20284;-76
2022/01/25 11:53:14;;;;;;;66.18;21.05;;;4.70;99.90;;;;;;5075945;28;20446;-76
2022/01/25 11:55:51;;;;;;;64.55;22.20;;;4.70;99.90;;;;;;5075908;28;20489;-76
2022/01/25 11:58:32;;;;;;;61.17;19.73;;;4.70;99.90;;;;;;5075685;28;20016;-76
2022/01/25 12:01:02;;;;;;;55.15;18.40;;;4.80;99.90;;;;;;5076153;28;20086;-77
2022/01/25 12:03:35;;;;;;;63.78;21.35;;;4.80;99.90;;;;;;5075907;28;20044;-75
2022/01/25 12:06:18;;;;;;;63.13;20.45;;;4.80;99.90;;;;;;5075541;28;20033;-76
2022/01/25 12:11:41;;;;;;;57.42;19.52;;;4.80;99.90;;;;;;5076053;28;20041;-75
2022/01/25 12:14:13;;;;;;;59.42;19.30;;;4.80;99.90;;;;;;5074083;28;20424;-76
2022/01/25 12:16:44;;;;;;;61.35;20.17;;;4.80;99.90;;;;;;5075683;28;20056;-76
2022/01/25 12:19:12;;;;;;;62.03;19.90;;;4.80;99.90;;;;;;5075297;28;20016;-77
2022/01/25 12:21:51;;;;;;;60.93;19.47;;;4.70;99.90;;;;;;5075370;28;20063;-77
2022/01/25 12:24:30;;;;;;;61.83;19.90;;;4.70;99.90;;;;;;5074234;28;20075;-76
2022/01/25 12:27:13;;;;;;;58.55;18.77;;;4.70;99.90;;;;;;5076666;28;20033;-76
2022/01/25 12:29:41;;;;;;;67.82;20.77;;;4.70;99.90;;;;;;5075314;28;20343;-76
2022/01/25 12:32:15;;;;;;;60.53;19.85;;;4.70;99.90;;;;;;5075785;28;20039;-76
2022/01/25 12:35:03;;;;;;;61.00;19.15;;;4.70;99.90;;;;;;5075944;28;20527;-76
2022/01/25 12:37:53;;;;;;;60.78;20.63;;;4.70;99.90;;;;;;5074177;28;20113;-76
2022/01/25 12:40:25;;;;;;;55.13;19.63;;;4.70;99.90;;;;;;5075276;28;20029;-76
2022/01/25 12:43:07;;;;;;;65.28;21.00;;;4.70;99.90;;;;;;5075111;28;20030;-76
2022/01/25 12:45:44;;;;;;;64.85;20.50;;;4.70;99.90;;;;;;5074270;28;20021;-77
2022/01/25 12:48:13;;;;;;;61.80;20.75;;;4.70;99.90;;;;;;5073868;28;20042;-77
2022/01/25 12:50:42;;;;;;;65.00;19.45;;;4.70;99.90;;;;;;5074778;28;20106;-76
2022/01/25 12:53:08;;;;;;;;;;;4.70;99.90;;;;;;5075579;28;20025;-76
2022/01/25 12:55:38;;;;;;;64.57;19.25;;;4.70;99.90;;;;;;5073592;28;20362;-76
2022/01/25 12:58:05;;;;;;;55.33;18.27;;;4.60;99.90;;;;;;5074773;28;20363;-76
2022/01/25 13:00:37;;;;;;;61.00;19.10;;;4.60;99.90;;;;;;5073639;28;20508;-76
2022/01/25 13:03:17;;;;;;;62.85;19.60;;;4.70;99.90;;;;;;5074807;28;20021;-76
2022/01/25 13:05:56;;;;;;;61.67;20.83;;;4.70;99.90;;;;;;5074632;28;20070;-76
2022/01/25 13:08:26;;;;;;;64.30;20.85;;;4.60;99.90;;;;;;5073098;28;20021;-76
2022/01/25 13:10:56;;;;;;;60.92;18.92;;;4.50;99.90;;;;;;5074348;28;20478;-76
2022/01/25 13:13:30;;;;;;;62.15;19.90;;;4.70;99.90;;;;;;5074018;28;20028;-77
2022/01/25 13:15:56;;;;;;;57.28;18.73;;;4.70;99.90;;;;;;5073055;28;20020;-76
2022/01/25 13:18:25;;;;;;;58.15;18.85;;;4.70;99.90;;;;;;5072093;28;20386;-77
2022/01/25 13:21:02;;;;;;;60.60;19.23;;;4.70;99.90;;;;;;5074118;28;20099;-76
2022/01/25 13:23:28;;;;;;;55.72;17.80;;;4.70;99.90;;;;;;5072890;28;20020;-76
2022/01/25 13:26:10;;;;;;;54.70;18.05;;;4.80;99.90;;;;;;5074175;28;20394;-77
2022/01/25 13:31:11;;;;;;;58.72;20.25;;;4.70;99.90;;;;;;5074653;28;20123;-77
2022/01/25 13:33:37;;;;;;;62.97;18.88;;;4.70;99.90;;;;;;5072495;28;20027;-75
2022/01/25 13:36:08;;;;;;;60.97;19.42;;;4.70;99.90;;;;;;5072950;28;20025;-76
2022/01/25 13:38:36;;;;;;;63.22;18.35;;;4.50;99.90;;;;;;5074013;28;20114;-76
2022/01/25 13:46:40;;;;;;;63.20;20.25;;;4.60;99.90;;;;;;5074526;28;20056;-75
2022/01/25 13:49:20;;;;;;;62.13;18.92;;;4.60;99.90;;;;;;5073936;28;20191;-77
2022/01/25 13:51:51;;;;;;;62.97;19.20;;;4.60;99.90;;;;;;5072552;28;20078;-76
2022/01/25 13:54:19;;;;;;;56.90;18.65;;;4.60;99.90;;;;;;5072521;28;20021;-76
2022/01/25 13:56:45;;;;;;;65.93;20.38;;;4.60;99.90;;;;;;5073924;28;20027;-75
2022/01/25 13:59:11;;;;;;;62.45;20.20;;;4.60;99.90;;;;;;5072247;28;20020;-76
2022/01/25 14:01:39;;;;;;;59.47;19.02;;;4.60;99.90;;;;;;5073560;28;20031;-76
2022/01/25 14:04:16;;;;;;;57.17;17.83;;;4.60;99.90;;;;;;5073869;28;20069;-76
2022/01/25 14:06:45;;;;;;;63.72;19.83;;;4.60;99.90;;;;;;5074391;28;20059;-77
2022/01/25 14:09:26;;;;;;;;;;;4.60;99.90;;;;;;5075196;28;20029;-77
2022/01/25 14:25:43;;;;;;;62.40;19.02;;;4.40;99.90;;;;;;5075667;28;20105;-75
2022/01/25 14:28:14;;;;;;;58.15;17.67;;;4.30;99.90;;;;;;5073416;28;20403;-75
2022/01/25 14:30:43;;;;;;;63.58;20.33;;;4.30;99.90;;;;;;5076572;28;20450;-78
2022/01/25 14:33:14;;;;;;;;;;;4.30;99.90;;;;;;5077595;28;20044;-75
2022/01/25 14:35:48;;;;;;;57.88;17.85;;;4.30;99.90;;;;;;5077378;28;19904;-76
2022/01/25 14:38:18;;;;;;;61.40;18.05;;;4.40;99.90;;;;;;5078579;28;20107;-76
2022/01/25 14:41:19;;;;;;;64.22;19.70;;;4.40;99.90;;;;;;5079238;28;20419;-76
2022/01/25 14:43:55;;;;;;;62.25;19.13;;;2.40;99.90;;;;;;5079166;28;20048;-76
2022/01/25 14:46:22;;;;;;;60.72;18.30;;;4.40;99.90;;;;;;5078003;28;20016;-76
2022/01/25 14:49:05;;;;;;;62.00;19.70;;;4.40;99.90;;;;;;5079768;28;20028;-75
2022/01/25 14:51:35;;;;;;;58.10;18.70;;;4.40;99.90;;;;;;5078967;28;20059;-76
2022/01/25 14:54:02;;;;;;;60.20;19.63;;;4.30;99.90;;;;;;5079304;28;20028;-75
2022/01/25 14:56:35;;;;;;;65.53;20.95;;;4.30;99.90;;;;;;5080208;28;20017;-74